sensor_id;sensor_type;location;lat;lon;timestamp;P1;durP1;ratioP1;P2;durP2;ratioP2
6017;SDS011;3037;51.068;13.780;2024-01-30T00:00:58;24.60;;;14.50;;
6017;SDS011;3037;51.068;13.780;2024-01-30T00:03:24;34.37;;;16.90;;
6017;SDS011;3037;51.068;13.780;2024-01-30T00:05:49;22.33;;;13.93;;
6017;SDS011;3037;51.068;13.780;2024-01-30T00:08:15;24.33;;;14.23;;
6017;SDS011;3037;51.068;13.780;2024-01-30T00:10:40;25.60;;;15.13;;
6017;SDS011;3037;51.068;13.780;2024-01-30T00:13:06;22.90;;;14.43;;
6017;SDS011;3037;51.068;13.780;2024-01-30T00:15:31;24.33;;;14.07;;
6017;SDS011;3037;51.068;13.780;2024-01-30T00:17:57;19.93;;;13.23;;
6017;SDS011;3037;51.068;13.780;2024-01-30T00:20:23;27.00;;;14.93;;
6017;SDS011;3037;51.068;13.780;2024-01-30T00:22:48;22.40;;;14.73;;
6017;SDS011;3037;51.068;13.780;2024-01-30T00:25:14;27.77;;;13.67;;
6017;SDS011;3037;51.068;13.780;2024-01-30T00:27:39;24.63;;;14.27;;
6017;SDS011;3037;51.068;13.780;2024-01-30T00:30:05;22.07;;;13.27;;
6017;SDS011;3037;51.068;13.780;2024-01-30T00:32:31;20.73;;;14.00;;
6017;SDS011;3037;51.068;13.780;2024-01-30T00:34:57;30.80;;;15.20;;
6017;SDS011;3037;51.068;13.780;2024-01-30T00:37:22;26.30;;;14.33;;
6017;SDS011;3037;51.068;13.780;2024-01-30T00:39:48;25.30;;;13.30;;
6017;SDS011;3037;51.068;13.780;2024-01-30T00:42:14;25.13;;;14.63;;
6017;SDS011;3037;51.068;13.780;2024-01-30T00:44:40;30.17;;;14.70;;
6017;SDS011;3037;51.068;13.780;2024-01-30T00:47:05;24.10;;;14.53;;
6017;SDS011;3037;51.068;13.780;2024-01-30T00:49:31;22.80;;;15.60;;
6017;SDS011;3037;51.068;13.780;2024-01-30T00:51:56;25.60;;;13.47;;
6017;SDS011;3037;51.068;13.780;2024-01-30T00:54:22;24.10;;;14.40;;
6017;SDS011;3037;51.068;13.780;2024-01-30T00:56:47;31.17;;;14.90;;
6017;SDS011;3037;51.068;13.780;2024-01-30T00:59:13;25.97;;;14.37;;
6017;SDS011;3037;51.068;13.780;2024-01-30T01:01:38;26.63;;;14.50;;
6017;SDS011;3037;51.068;13.780;2024-01-30T01:04:04;27.43;;;16.43;;
6017;SDS011;3037;51.068;13.780;2024-01-30T01:06:29;23.47;;;14.83;;
6017;SDS011;3037;51.068;13.780;2024-01-30T01:08:55;22.37;;;14.73;;
6017;SDS011;3037;51.068;13.780;2024-01-30T01:11:20;20.60;;;14.03;;
6017;SDS011;3037;51.068;13.780;2024-01-30T01:13:46;24.83;;;14.70;;
6017;SDS011;3037;51.068;13.780;2024-01-30T01:16:11;27.93;;;14.97;;
6017;SDS011;3037;51.068;13.780;2024-01-30T01:18:37;25.50;;;15.77;;
6017;SDS011;3037;51.068;13.780;2024-01-30T01:21:02;20.87;;;13.70;;
6017;SDS011;3037;51.068;13.780;2024-01-30T01:23:28;23.30;;;13.77;;
6017;SDS011;3037;51.068;13.780;2024-01-30T01:25:53;23.30;;;14.53;;
6017;SDS011;3037;51.068;13.780;2024-01-30T01:28:20;28.40;;;14.60;;
6017;SDS011;3037;51.068;13.780;2024-01-30T01:30:45;37.63;;;14.80;;
6017;SDS011;3037;51.068;13.780;2024-01-30T01:33:11;25.73;;;14.00;;
6017;SDS011;3037;51.068;13.780;2024-01-30T01:35:39;27.53;;;14.43;;
6017;SDS011;3037;51.068;13.780;2024-01-30T01:38:05;27.33;;;13.53;;
6017;SDS011;3037;51.068;13.780;2024-01-30T01:40:30;22.97;;;14.10;;
6017;SDS011;3037;51.068;13.780;2024-01-30T01:42:56;26.40;;;14.30;;
6017;SDS011;3037;51.068;13.780;2024-01-30T01:45:21;25.70;;;13.77;;
6017;SDS011;3037;51.068;13.780;2024-01-30T01:47:48;26.00;;;13.90;;
6017;SDS011;3037;51.068;13.780;2024-01-30T01:50:18;26.37;;;15.13;;
6017;SDS011;3037;51.068;13.780;2024-01-30T01:52:46;18.50;;;13.27;;
6017;SDS011;3037;51.068;13.780;2024-01-30T01:55:13;22.97;;;13.30;;
6017;SDS011;3037;51.068;13.780;2024-01-30T01:57:39;26.13;;;13.90;;
6017;SDS011;3037;51.068;13.780;2024-01-30T02:00:06;25.30;;;14.30;;
6017;SDS011;3037;51.068;13.780;2024-01-30T02:02:34;22.37;;;13.10;;
6017;SDS011;3037;51.068;13.780;2024-01-30T02:05:01;25.10;;;13.90;;
6017;SDS011;3037;51.068;13.780;2024-01-30T02:07:27;21.80;;;13.23;;
6017;SDS011;3037;51.068;13.780;2024-01-30T02:09:53;23.50;;;13.83;;
6017;SDS011;3037;51.068;13.780;2024-01-30T02:12:19;25.20;;;14.53;;
6017;SDS011;3037;51.068;13.780;2024-01-30T02:14:45;25.53;;;13.77;;
6017;SDS011;3037;51.068;13.780;2024-01-30T02:17:12;30.83;;;16.23;;
6017;SDS011;3037;51.068;13.780;2024-01-30T02:19:37;25.83;;;13.77;;
6017;SDS011;3037;51.068;13.780;2024-01-30T02:22:03;24.77;;;12.80;;
6017;SDS011;3037;51.068;13.780;2024-01-30T02:24:29;21.90;;;14.03;;
6017;SDS011;3037;51.068;13.780;2024-01-30T02:26:55;22.57;;;15.13;;
6017;SDS011;3037;51.068;13.780;2024-01-30T02:29:20;22.73;;;13.40;;
6017;SDS011;3037;51.068;13.780;2024-01-30T02:31:46;23.87;;;14.17;;
6017;SDS011;3037;51.068;13.780;2024-01-30T02:34:13;23.53;;;14.27;;
6017;SDS011;3037;51.068;13.780;2024-01-30T02:36:42;24.70;;;14.90;;
6017;SDS011;3037;51.068;13.780;2024-01-30T02:39:07;25.83;;;14.17;;
6017;SDS011;3037;51.068;13.780;2024-01-30T02:41:33;22.10;;;13.63;;
6017;SDS011;3037;51.068;13.780;2024-01-30T02:43:58;24.10;;;13.17;;
6017;SDS011;3037;51.068;13.780;2024-01-30T02:46:24;24.97;;;15.17;;
6017;SDS011;3037;51.068;13.780;2024-01-30T02:48:50;26.00;;;13.60;;
6017;SDS011;3037;51.068;13.780;2024-01-30T02:51:15;29.97;;;14.67;;
6017;SDS011;3037;51.068;13.780;2024-01-30T02:53:41;29.23;;;15.03;;
6017;SDS011;3037;51.068;13.780;2024-01-30T02:56:07;26.60;;;13.90;;
6017;SDS011;3037;51.068;13.780;2024-01-30T02:58:35;21.93;;;13.53;;
6017;SDS011;3037;51.068;13.780;2024-01-30T03:01:01;30.50;;;16.33;;
6017;SDS011;3037;51.068;13.780;2024-01-30T03:03:27;24.87;;;14.90;;
6017;SDS011;3037;51.068;13.780;2024-01-30T03:05:52;30.37;;;14.83;;
6017;SDS011;3037;51.068;13.780;2024-01-30T03:08:18;24.93;;;14.07;;
6017;SDS011;3037;51.068;13.780;2024-01-30T03:10:43;24.90;;;14.60;;
6017;SDS011;3037;51.068;13.780;2024-01-30T03:13:09;21.30;;;14.77;;
6017;SDS011;3037;51.068;13.780;2024-01-30T03:15:34;26.70;;;13.60;;
6017;SDS011;3037;51.068;13.780;2024-01-30T03:18:00;32.47;;;14.13;;
6017;SDS011;3037;51.068;13.780;2024-01-30T03:20:27;24.57;;;14.67;;
6017;SDS011;3037;51.068;13.780;2024-01-30T03:22:55;25.73;;;14.83;;
6017;SDS011;3037;51.068;13.780;2024-01-30T03:25:21;29.57;;;16.07;;
6017;SDS011;3037;51.068;13.780;2024-01-30T03:27:46;35.67;;;15.13;;
6017;SDS011;3037;51.068;13.780;2024-01-30T03:30:12;27.10;;;14.67;;
6017;SDS011;3037;51.068;13.780;2024-01-30T03:32:37;18.60;;;13.20;;
6017;SDS011;3037;51.068;13.780;2024-01-30T03:35:03;21.67;;;13.40;;
6017;SDS011;3037;51.068;13.780;2024-01-30T03:37:29;24.30;;;14.57;;
6017;SDS011;3037;51.068;13.780;2024-01-30T03:39:54;24.13;;;13.60;;
6017;SDS011;3037;51.068;13.780;2024-01-30T03:42:20;28.50;;;15.60;;
6017;SDS011;3037;51.068;13.780;2024-01-30T03:44:45;24.87;;;14.67;;
6017;SDS011;3037;51.068;13.780;2024-01-30T03:47:11;32.20;;;15.33;;
6017;SDS011;3037;51.068;13.780;2024-01-30T03:49:37;26.80;;;14.63;;
6017;SDS011;3037;51.068;13.780;2024-01-30T03:52:02;25.17;;;14.97;;
6017;SDS011;3037;51.068;13.780;2024-01-30T03:54:28;27.30;;;14.77;;
6017;SDS011;3037;51.068;13.780;2024-01-30T03:56:54;33.07;;;15.03;;
6017;SDS011;3037;51.068;13.780;2024-01-30T03:59:19;27.77;;;15.23;;
6017;SDS011;3037;51.068;13.780;2024-01-30T04:01:49;27.60;;;14.77;;
6017;SDS011;3037;51.068;13.780;2024-01-30T04:04:17;27.77;;;15.70;;
6017;SDS011;3037;51.068;13.780;2024-01-30T04:06:43;30.50;;;14.80;;
6017;SDS011;3037;51.068;13.780;2024-01-30T04:09:09;28.97;;;16.37;;
6017;SDS011;3037;51.068;13.780;2024-01-30T04:11:36;27.40;;;15.07;;
6017;SDS011;3037;51.068;13.780;2024-01-30T04:14:01;33.47;;;15.70;;
6017;SDS011;3037;51.068;13.780;2024-01-30T04:16:27;26.07;;;16.87;;
6017;SDS011;3037;51.068;13.780;2024-01-30T04:18:52;29.60;;;15.50;;
6017;SDS011;3037;51.068;13.780;2024-01-30T04:21:18;32.97;;;14.50;;
6017;SDS011;3037;51.068;13.780;2024-01-30T04:23:45;27.73;;;15.20;;
6017;SDS011;3037;51.068;13.780;2024-01-30T04:26:10;24.17;;;15.00;;
6017;SDS011;3037;51.068;13.780;2024-01-30T04:28:36;27.00;;;14.73;;
6017;SDS011;3037;51.068;13.780;2024-01-30T04:31:01;25.97;;;15.30;;
6017;SDS011;3037;51.068;13.780;2024-01-30T04:33:27;30.60;;;14.60;;
6017;SDS011;3037;51.068;13.780;2024-01-30T04:35:52;25.40;;;13.13;;
6017;SDS011;3037;51.068;13.780;2024-01-30T04:38:18;25.70;;;14.20;;
6017;SDS011;3037;51.068;13.780;2024-01-30T04:40:43;26.87;;;13.47;;
6017;SDS011;3037;51.068;13.780;2024-01-30T04:43:09;28.43;;;13.87;;
6017;SDS011;3037;51.068;13.780;2024-01-30T04:45:34;32.27;;;15.63;;
6017;SDS011;3037;51.068;13.780;2024-01-30T04:48:00;23.37;;;14.17;;
6017;SDS011;3037;51.068;13.780;2024-01-30T04:50:25;24.93;;;14.50;;
6017;SDS011;3037;51.068;13.780;2024-01-30T04:52:51;23.67;;;14.63;;
6017;SDS011;3037;51.068;13.780;2024-01-30T04:55:17;24.17;;;13.47;;
6017;SDS011;3037;51.068;13.780;2024-01-30T04:57:43;25.60;;;14.03;;
6017;SDS011;3037;51.068;13.780;2024-01-30T05:00:08;24.50;;;14.57;;
6017;SDS011;3037;51.068;13.780;2024-01-30T05:02:34;29.20;;;15.27;;
6017;SDS011;3037;51.068;13.780;2024-01-30T05:05:00;26.03;;;14.63;;
6017;SDS011;3037;51.068;13.780;2024-01-30T05:07:25;19.50;;;11.97;;
6017;SDS011;3037;51.068;13.780;2024-01-30T05:09:51;23.63;;;14.10;;
6017;SDS011;3037;51.068;13.780;2024-01-30T05:12:17;27.80;;;14.20;;
6017;SDS011;3037;51.068;13.780;2024-01-30T05:14:42;27.63;;;14.50;;
6017;SDS011;3037;51.068;13.780;2024-01-30T05:17:07;31.63;;;14.27;;
6017;SDS011;3037;51.068;13.780;2024-01-30T05:22:10;24.63;;;13.47;;
6017;SDS011;3037;51.068;13.780;2024-01-30T05:24:40;25.73;;;13.90;;
6017;SDS011;3037;51.068;13.780;2024-01-30T05:27:06;27.00;;;15.10;;
6017;SDS011;3037;51.068;13.780;2024-01-30T05:29:31;21.97;;;13.60;;
6017;SDS011;3037;51.068;13.780;2024-01-30T05:31:57;29.47;;;14.30;;
6017;SDS011;3037;51.068;13.780;2024-01-30T05:34:23;24.73;;;14.13;;
6017;SDS011;3037;51.068;13.780;2024-01-30T05:36:48;25.27;;;13.60;;
6017;SDS011;3037;51.068;13.780;2024-01-30T05:39:13;22.03;;;13.50;;
6017;SDS011;3037;51.068;13.780;2024-01-30T05:41:39;28.47;;;15.27;;
6017;SDS011;3037;51.068;13.780;2024-01-30T05:44:04;21.10;;;14.03;;
6017;SDS011;3037;51.068;13.780;2024-01-30T05:46:30;32.10;;;14.90;;
6017;SDS011;3037;51.068;13.780;2024-01-30T05:48:55;28.20;;;14.40;;
6017;SDS011;3037;51.068;13.780;2024-01-30T05:51:21;26.13;;;14.27;;
6017;SDS011;3037;51.068;13.780;2024-01-30T05:53:46;31.47;;;15.10;;
6017;SDS011;3037;51.068;13.780;2024-01-30T05:56:12;28.73;;;15.40;;
6017;SDS011;3037;51.068;13.780;2024-01-30T05:58:37;25.03;;;14.17;;
6017;SDS011;3037;51.068;13.780;2024-01-30T06:01:06;29.90;;;16.80;;
6017;SDS011;3037;51.068;13.780;2024-01-30T06:03:33;29.33;;;14.33;;
6017;SDS011;3037;51.068;13.780;2024-01-30T06:05:59;20.73;;;12.90;;
6017;SDS011;3037;51.068;13.780;2024-01-30T06:08:24;22.43;;;13.27;;
6017;SDS011;3037;51.068;13.780;2024-01-30T06:10:49;22.83;;;13.83;;
6017;SDS011;3037;51.068;13.780;2024-01-30T06:13:15;24.13;;;14.57;;
6017;SDS011;3037;51.068;13.780;2024-01-30T06:15:40;21.50;;;13.70;;
6017;SDS011;3037;51.068;13.780;2024-01-30T06:18:06;30.80;;;14.87;;
6017;SDS011;3037;51.068;13.780;2024-01-30T06:20:31;22.47;;;13.47;;
6017;SDS011;3037;51.068;13.780;2024-01-30T06:22:57;20.10;;;13.80;;
6017;SDS011;3037;51.068;13.780;2024-01-30T06:25:22;30.47;;;14.63;;
6017;SDS011;3037;51.068;13.780;2024-01-30T06:27:48;25.80;;;15.10;;
6017;SDS011;3037;51.068;13.780;2024-01-30T06:30:14;25.47;;;13.70;;
6017;SDS011;3037;51.068;13.780;2024-01-30T06:32:39;26.57;;;13.33;;
6017;SDS011;3037;51.068;13.780;2024-01-30T06:35:05;25.17;;;15.00;;
6017;SDS011;3037;51.068;13.780;2024-01-30T06:37:31;22.43;;;14.47;;
6017;SDS011;3037;51.068;13.780;2024-01-30T06:39:56;27.33;;;13.20;;
6017;SDS011;3037;51.068;13.780;2024-01-30T06:42:22;25.73;;;12.30;;
6017;SDS011;3037;51.068;13.780;2024-01-30T06:44:47;22.90;;;13.70;;
6017;SDS011;3037;51.068;13.780;2024-01-30T06:47:13;27.03;;;14.17;;
6017;SDS011;3037;51.068;13.780;2024-01-30T06:49:38;21.20;;;14.53;;
6017;SDS011;3037;51.068;13.780;2024-01-30T06:52:07;24.83;;;14.27;;
6017;SDS011;3037;51.068;13.780;2024-01-30T06:54:33;22.57;;;12.43;;
6017;SDS011;3037;51.068;13.780;2024-01-30T06:56:59;20.60;;;11.97;;
6017;SDS011;3037;51.068;13.780;2024-01-30T06:59:25;24.00;;;13.83;;
6017;SDS011;3037;51.068;13.780;2024-01-30T07:01:50;21.60;;;13.20;;
6017;SDS011;3037;51.068;13.780;2024-01-30T07:04:16;24.20;;;14.20;;
6017;SDS011;3037;51.068;13.780;2024-01-30T07:06:41;24.40;;;14.90;;
6017;SDS011;3037;51.068;13.780;2024-01-30T07:09:07;21.30;;;12.07;;
6017;SDS011;3037;51.068;13.780;2024-01-30T07:11:33;22.77;;;12.20;;
6017;SDS011;3037;51.068;13.780;2024-01-30T07:13:59;20.40;;;11.97;;
6017;SDS011;3037;51.068;13.780;2024-01-30T07:16:24;24.83;;;13.00;;
6017;SDS011;3037;51.068;13.780;2024-01-30T07:18:50;25.63;;;13.33;;
6017;SDS011;3037;51.068;13.780;2024-01-30T07:21:16;26.90;;;13.37;;
6017;SDS011;3037;51.068;13.780;2024-01-30T07:23:42;24.97;;;14.40;;
6017;SDS011;3037;51.068;13.780;2024-01-30T07:26:08;25.20;;;13.00;;
6017;SDS011;3037;51.068;13.780;2024-01-30T07:28:34;21.93;;;13.03;;
6017;SDS011;3037;51.068;13.780;2024-01-30T07:31:00;28.53;;;13.57;;
6017;SDS011;3037;51.068;13.780;2024-01-30T07:33:26;19.80;;;12.90;;
6017;SDS011;3037;51.068;13.780;2024-01-30T07:35:52;26.07;;;12.33;;
6017;SDS011;3037;51.068;13.780;2024-01-30T07:38:18;24.43;;;12.60;;
6017;SDS011;3037;51.068;13.780;2024-01-30T07:40:43;23.50;;;12.07;;
6017;SDS011;3037;51.068;13.780;2024-01-30T07:43:09;22.23;;;12.80;;
6017;SDS011;3037;51.068;13.780;2024-01-30T07:45:35;23.67;;;12.90;;
6017;SDS011;3037;51.068;13.780;2024-01-30T07:48:02;23.37;;;12.93;;
6017;SDS011;3037;51.068;13.780;2024-01-30T07:50:27;22.13;;;12.97;;
6017;SDS011;3037;51.068;13.780;2024-01-30T07:52:53;23.10;;;13.23;;
6017;SDS011;3037;51.068;13.780;2024-01-30T07:55:20;14.67;;;10.90;;
6017;SDS011;3037;51.068;13.780;2024-01-30T07:57:51;17.27;;;12.40;;
6017;SDS011;3037;51.068;13.780;2024-01-30T08:00:17;25.00;;;12.00;;
6017;SDS011;3037;51.068;13.780;2024-01-30T08:02:46;19.63;;;11.60;;
6017;SDS011;3037;51.068;13.780;2024-01-30T08:05:12;21.60;;;13.47;;
6017;SDS011;3037;51.068;13.780;2024-01-30T08:07:40;17.33;;;11.30;;
6017;SDS011;3037;51.068;13.780;2024-01-30T08:10:06;20.10;;;11.50;;
6017;SDS011;3037;51.068;13.780;2024-01-30T08:12:32;14.77;;;10.30;;
6017;SDS011;3037;51.068;13.780;2024-01-30T08:14:58;31.37;;;13.70;;
6017;SDS011;3037;51.068;13.780;2024-01-30T08:17:23;22.67;;;11.97;;
6017;SDS011;3037;51.068;13.780;2024-01-30T08:19:49;18.97;;;11.67;;
6017;SDS011;3037;51.068;13.780;2024-01-30T08:22:14;21.40;;;11.93;;
6017;SDS011;3037;51.068;13.780;2024-01-30T08:24:40;22.80;;;11.47;;
6017;SDS011;3037;51.068;13.780;2024-01-30T08:27:06;19.93;;;10.43;;
6017;SDS011;3037;51.068;13.780;2024-01-30T08:29:34;17.50;;;11.20;;
6017;SDS011;3037;51.068;13.780;2024-01-30T08:32:00;19.00;;;10.87;;
6017;SDS011;3037;51.068;13.780;2024-01-30T08:34:27;23.37;;;13.97;;
6017;SDS011;3037;51.068;13.780;2024-01-30T08:36:52;19.20;;;11.00;;
6017;SDS011;3037;51.068;13.780;2024-01-30T08:39:18;16.47;;;11.47;;
6017;SDS011;3037;51.068;13.780;2024-01-30T08:41:44;21.57;;;12.50;;
6017;SDS011;3037;51.068;13.780;2024-01-30T08:44:09;19.00;;;10.77;;
6017;SDS011;3037;51.068;13.780;2024-01-30T08:46:36;20.30;;;12.83;;
6017;SDS011;3037;51.068;13.780;2024-01-30T08:49:01;16.77;;;10.67;;
6017;SDS011;3037;51.068;13.780;2024-01-30T08:51:27;19.73;;;12.10;;
6017;SDS011;3037;51.068;13.780;2024-01-30T08:53:53;17.10;;;11.80;;
6017;SDS011;3037;51.068;13.780;2024-01-30T08:56:19;18.10;;;11.27;;
6017;SDS011;3037;51.068;13.780;2024-01-30T08:58:44;16.33;;;10.40;;
6017;SDS011;3037;51.068;13.780;2024-01-30T09:01:10;18.30;;;11.30;;
6017;SDS011;3037;51.068;13.780;2024-01-30T09:03:35;20.73;;;11.07;;
6017;SDS011;3037;51.068;13.780;2024-01-30T09:06:07;14.40;;;10.60;;
6017;SDS011;3037;51.068;13.780;2024-01-30T09:08:33;20.40;;;11.43;;
6017;SDS011;3037;51.068;13.780;2024-01-30T09:10:59;15.40;;;11.03;;
6017;SDS011;3037;51.068;13.780;2024-01-30T09:13:24;15.63;;;10.83;;
6017;SDS011;3037;51.068;13.780;2024-01-30T09:15:50;16.27;;;10.80;;
6017;SDS011;3037;51.068;13.780;2024-01-30T09:18:15;14.40;;;10.20;;
6017;SDS011;3037;51.068;13.780;2024-01-30T09:20:41;21.27;;;12.63;;
6017;SDS011;3037;51.068;13.780;2024-01-30T09:23:07;14.00;;;10.67;;
6017;SDS011;3037;51.068;13.780;2024-01-30T09:25:33;20.83;;;11.57;;
6017;SDS011;3037;51.068;13.780;2024-01-30T09:27:59;20.43;;;12.03;;
6017;SDS011;3037;51.068;13.780;2024-01-30T09:30:24;25.33;;;12.60;;
6017;SDS011;3037;51.068;13.780;2024-01-30T09:32:50;20.40;;;11.20;;
6017;SDS011;3037;51.068;13.780;2024-01-30T09:35:15;20.13;;;11.83;;
6017;SDS011;3037;51.068;13.780;2024-01-30T09:37:41;19.13;;;12.00;;
6017;SDS011;3037;51.068;13.780;2024-01-30T09:40:07;14.17;;;10.47;;
6017;SDS011;3037;51.068;13.780;2024-01-30T09:42:36;19.57;;;11.90;;
6017;SDS011;3037;51.068;13.780;2024-01-30T09:45:02;18.43;;;11.03;;
6017;SDS011;3037;51.068;13.780;2024-01-30T09:47:32;25.50;;;12.03;;
6017;SDS011;3037;51.068;13.780;2024-01-30T09:50:08;16.00;;;10.63;;
6017;SDS011;3037;51.068;13.780;2024-01-30T09:52:35;18.00;;;11.23;;
6017;SDS011;3037;51.068;13.780;2024-01-30T09:55:01;19.87;;;12.87;;
6017;SDS011;3037;51.068;13.780;2024-01-30T09:57:27;18.23;;;11.47;;
6017;SDS011;3037;51.068;13.780;2024-01-30T09:59:52;25.70;;;11.90;;
6017;SDS011;3037;51.068;13.780;2024-01-30T10:02:21;18.77;;;11.40;;
6017;SDS011;3037;51.068;13.780;2024-01-30T10:04:47;13.90;;;11.30;;
6017;SDS011;3037;51.068;13.780;2024-01-30T10:07:14;24.83;;;12.97;;
6017;SDS011;3037;51.068;13.780;2024-01-30T10:09:40;18.17;;;12.40;;
6017;SDS011;3037;51.068;13.780;2024-01-30T10:12:06;20.60;;;12.37;;
6017;SDS011;3037;51.068;13.780;2024-01-30T10:14:32;22.23;;;14.13;;
6017;SDS011;3037;51.068;13.780;2024-01-30T10:16:58;20.80;;;13.13;;
6017;SDS011;3037;51.068;13.780;2024-01-30T10:19:24;21.27;;;12.17;;
6017;SDS011;3037;51.068;13.780;2024-01-30T10:21:49;20.83;;;11.97;;
6017;SDS011;3037;51.068;13.780;2024-01-30T10:24:15;19.73;;;11.70;;
6017;SDS011;3037;51.068;13.780;2024-01-30T10:26:43;17.40;;;12.57;;
6017;SDS011;3037;51.068;13.780;2024-01-30T10:29:09;19.23;;;12.13;;
6017;SDS011;3037;51.068;13.780;2024-01-30T10:31:34;19.40;;;12.70;;
6017;SDS011;3037;51.068;13.780;2024-01-30T10:34:00;20.23;;;13.40;;
6017;SDS011;3037;51.068;13.780;2024-01-30T10:36:28;20.00;;;11.43;;
6017;SDS011;3037;51.068;13.780;2024-01-30T10:38:58;20.00;;;11.80;;
6017;SDS011;3037;51.068;13.780;2024-01-30T10:41:26;14.70;;;10.20;;
6017;SDS011;3037;51.068;13.780;2024-01-30T10:44:01;12.53;;;10.53;;
6017;SDS011;3037;51.068;13.780;2024-01-30T10:46:32;17.90;;;11.73;;
6017;SDS011;3037;51.068;13.780;2024-01-30T10:49:00;15.90;;;11.37;;
6017;SDS011;3037;51.068;13.780;2024-01-30T10:51:26;17.03;;;10.93;;
6017;SDS011;3037;51.068;13.780;2024-01-30T10:53:52;15.43;;;11.40;;
6017;SDS011;3037;51.068;13.780;2024-01-30T10:56:20;23.30;;;12.33;;
6017;SDS011;3037;51.068;13.780;2024-01-30T10:58:47;17.20;;;10.90;;
6017;SDS011;3037;51.068;13.780;2024-01-30T11:01:20;17.97;;;11.10;;
6017;SDS011;3037;51.068;13.780;2024-01-30T11:03:51;20.73;;;12.63;;
6017;SDS011;3037;51.068;13.780;2024-01-30T11:06:17;20.20;;;12.30;;
6017;SDS011;3037;51.068;13.780;2024-01-30T11:08:46;24.57;;;13.47;;
6017;SDS011;3037;51.068;13.780;2024-01-30T11:11:11;20.60;;;12.07;;
6017;SDS011;3037;51.068;13.780;2024-01-30T11:13:37;19.43;;;11.67;;
6017;SDS011;3037;51.068;13.780;2024-01-30T11:16:03;17.27;;;11.97;;
6017;SDS011;3037;51.068;13.780;2024-01-30T11:18:30;23.23;;;13.10;;
6017;SDS011;3037;51.068;13.780;2024-01-30T11:20:56;20.37;;;11.73;;
6017;SDS011;3037;51.068;13.780;2024-01-30T11:23:29;21.20;;;12.60;;
6017;SDS011;3037;51.068;13.780;2024-01-30T11:25:54;22.30;;;13.00;;
6017;SDS011;3037;51.068;13.780;2024-01-30T11:28:21;30.33;;;13.80;;
6017;SDS011;3037;51.068;13.780;2024-01-30T11:30:48;21.70;;;12.90;;
6017;SDS011;3037;51.068;13.780;2024-01-30T11:33:15;30.30;;;12.73;;
6017;SDS011;3037;51.068;13.780;2024-01-30T11:35:53;21.00;;;11.33;;
6017;SDS011;3037;51.068;13.780;2024-01-30T11:38:19;20.60;;;11.57;;
6017;SDS011;3037;51.068;13.780;2024-01-30T11:40:44;19.43;;;12.00;;
6017;SDS011;3037;51.068;13.780;2024-01-30T11:43:10;21.73;;;14.47;;
6017;SDS011;3037;51.068;13.780;2024-01-30T11:45:37;22.17;;;12.90;;
6017;SDS011;3037;51.068;13.780;2024-01-30T11:48:03;22.50;;;12.30;;
6017;SDS011;3037;51.068;13.780;2024-01-30T11:50:29;23.57;;;13.17;;
6017;SDS011;3037;51.068;13.780;2024-01-30T11:52:55;21.70;;;13.00;;
6017;SDS011;3037;51.068;13.780;2024-01-30T11:55:22;24.83;;;13.40;;
6017;SDS011;3037;51.068;13.780;2024-01-30T11:57:48;21.43;;;12.23;;
6017;SDS011;3037;51.068;13.780;2024-01-30T12:00:16;25.20;;;14.37;;
6017;SDS011;3037;51.068;13.780;2024-01-30T12:02:43;20.77;;;12.10;;
6017;SDS011;3037;51.068;13.780;2024-01-30T12:05:13;22.77;;;13.67;;
6017;SDS011;3037;51.068;13.780;2024-01-30T12:07:39;20.93;;;13.33;;
6017;SDS011;3037;51.068;13.780;2024-01-30T12:10:04;28.13;;;12.80;;
6017;SDS011;3037;51.068;13.780;2024-01-30T12:12:30;25.67;;;14.67;;
6017;SDS011;3037;51.068;13.780;2024-01-30T12:14:56;23.17;;;14.63;;
6017;SDS011;3037;51.068;13.780;2024-01-30T12:17:23;23.90;;;13.30;;
6017;SDS011;3037;51.068;13.780;2024-01-30T12:20:02;24.00;;;12.77;;
6017;SDS011;3037;51.068;13.780;2024-01-30T12:22:28;22.83;;;12.47;;
6017;SDS011;3037;51.068;13.780;2024-01-30T12:24:53;21.40;;;12.60;;
6017;SDS011;3037;51.068;13.780;2024-01-30T12:27:19;26.70;;;13.50;;
6017;SDS011;3037;51.068;13.780;2024-01-30T12:29:44;20.93;;;12.60;;
6017;SDS011;3037;51.068;13.780;2024-01-30T12:32:14;21.33;;;12.53;;
6017;SDS011;3037;51.068;13.780;2024-01-30T12:34:41;21.90;;;13.57;;
6017;SDS011;3037;51.068;13.780;2024-01-30T12:37:07;27.13;;;15.90;;
6017;SDS011;3037;51.068;13.780;2024-01-30T12:39:34;22.40;;;13.13;;
6017;SDS011;3037;51.068;13.780;2024-01-30T12:42:00;22.73;;;12.33;;
6017;SDS011;3037;51.068;13.780;2024-01-30T12:44:26;25.50;;;14.30;;
6017;SDS011;3037;51.068;13.780;2024-01-30T12:46:51;19.83;;;13.17;;
6017;SDS011;3037;51.068;13.780;2024-01-30T12:49:17;23.77;;;14.80;;
6017;SDS011;3037;51.068;13.780;2024-01-30T12:51:42;26.23;;;13.07;;
6017;SDS011;3037;51.068;13.780;2024-01-30T12:54:08;20.77;;;12.70;;
6017;SDS011;3037;51.068;13.780;2024-01-30T12:56:33;23.13;;;13.17;;
6017;SDS011;3037;51.068;13.780;2024-01-30T12:58:59;22.53;;;14.20;;
6017;SDS011;3037;51.068;13.780;2024-01-30T13:01:24;24.63;;;13.77;;
6017;SDS011;3037;51.068;13.780;2024-01-30T13:03:50;25.93;;;13.70;;
6017;SDS011;3037;51.068;13.780;2024-01-30T13:06:15;22.70;;;14.27;;
6017;SDS011;3037;51.068;13.780;2024-01-30T13:08:41;27.43;;;13.80;;
6017;SDS011;3037;51.068;13.780;2024-01-30T13:11:06;23.10;;;14.20;;
6017;SDS011;3037;51.068;13.780;2024-01-30T13:13:32;26.50;;;13.97;;
6017;SDS011;3037;51.068;13.780;2024-01-30T13:15:57;20.13;;;12.80;;
6017;SDS011;3037;51.068;13.780;2024-01-30T13:18:23;30.80;;;13.80;;
6017;SDS011;3037;51.068;13.780;2024-01-30T13:20:48;21.23;;;14.53;;
6017;SDS011;3037;51.068;13.780;2024-01-30T13:23:14;20.57;;;14.13;;
6017;SDS011;3037;51.068;13.780;2024-01-30T13:25:39;25.30;;;14.40;;
6017;SDS011;3037;51.068;13.780;2024-01-30T13:28:05;22.83;;;13.20;;
6017;SDS011;3037;51.068;13.780;2024-01-30T13:30:30;24.33;;;14.03;;
6017;SDS011;3037;51.068;13.780;2024-01-30T13:32:56;26.00;;;14.20;;
6017;SDS011;3037;51.068;13.780;2024-01-30T13:35:22;23.33;;;13.73;;
6017;SDS011;3037;51.068;13.780;2024-01-30T13:37:47;22.50;;;13.80;;
6017;SDS011;3037;51.068;13.780;2024-01-30T13:40:13;29.90;;;15.13;;
6017;SDS011;3037;51.068;13.780;2024-01-30T13:42:39;19.60;;;13.13;;
6017;SDS011;3037;51.068;13.780;2024-01-30T13:45:05;22.93;;;14.13;;
6017;SDS011;3037;51.068;13.780;2024-01-30T13:47:30;23.73;;;13.50;;
6017;SDS011;3037;51.068;13.780;2024-01-30T13:49:56;26.83;;;13.73;;
6017;SDS011;3037;51.068;13.780;2024-01-30T13:52:22;25.03;;;13.80;;
6017;SDS011;3037;51.068;13.780;2024-01-30T13:54:47;22.80;;;14.37;;
6017;SDS011;3037;51.068;13.780;2024-01-30T13:57:13;20.80;;;13.70;;
6017;SDS011;3037;51.068;13.780;2024-01-30T13:59:38;34.23;;;14.57;;
6017;SDS011;3037;51.068;13.780;2024-01-30T14:02:04;22.67;;;14.63;;
6017;SDS011;3037;51.068;13.780;2024-01-30T14:04:30;21.87;;;13.40;;
6017;SDS011;3037;51.068;13.780;2024-01-30T14:06:56;20.80;;;13.60;;
6017;SDS011;3037;51.068;13.780;2024-01-30T14:09:21;26.20;;;15.00;;
6017;SDS011;3037;51.068;13.780;2024-01-30T14:11:47;22.23;;;13.10;;
6017;SDS011;3037;51.068;13.780;2024-01-30T14:14:12;22.30;;;13.10;;
6017;SDS011;3037;51.068;13.780;2024-01-30T14:16:38;17.93;;;12.70;;
6017;SDS011;3037;51.068;13.780;2024-01-30T14:19:03;20.40;;;13.77;;
6017;SDS011;3037;51.068;13.780;2024-01-30T14:21:29;24.10;;;13.60;;
6017;SDS011;3037;51.068;13.780;2024-01-30T14:23:54;25.43;;;12.50;;
6017;SDS011;3037;51.068;13.780;2024-01-30T14:26:20;27.53;;;14.43;;
6017;SDS011;3037;51.068;13.780;2024-01-30T14:28:46;20.90;;;13.67;;